createdAt,value
2018-04-28T00:01:26.805Z,16.6
2018-04-28T00:11:26.717Z,16.4
2018-04-28T00:21:28.032Z,15.4
2018-04-28T00:31:26.590Z,16.2
2018-04-28T00:41:27.572Z,16.5
2018-04-28T00:51:28.967Z,16.9
2018-04-28T01:01:26.546Z,17.3
2018-04-28T01:11:28.076Z,15.1
2018-04-28T01:21:26.944Z,16.1
2018-04-28T01:31:26.601Z,14.7
2018-04-28T01:41:28.071Z,16.1
2018-04-28T01:51:29.501Z,15.4
2018-04-28T02:01:27.747Z,18.9
2018-04-28T02:11:27.823Z,12.5
2018-04-28T02:21:27.223Z,13.8
2018-04-28T02:31:26.960Z,13.8
2018-04-28T02:41:26.576Z,11.5
2018-04-28T02:51:26.940Z,11.9
2018-04-28T03:01:26.550Z,10.5
2018-04-28T03:11:27.446Z,12.8
2018-04-28T03:21:27.614Z,13.7
2018-04-28T03:31:27.399Z,12.8
2018-04-28T03:41:28.462Z,16.0
2018-04-28T03:51:28.778Z,10.3
2018-04-28T04:01:26.744Z,13.8
2018-04-28T04:11:30.480Z,12.9
2018-04-28T04:21:28.702Z,15.1
2018-04-28T04:31:28.964Z,18.9
2018-04-28T04:41:28.042Z,14.5
2018-04-28T04:51:26.733Z,16.1
2018-04-28T05:01:26.318Z,16.4
2018-04-28T05:11:27.596Z,13.9
2018-04-28T05:21:28.261Z,24.6
2018-04-28T05:31:28.881Z,17.2
2018-04-28T05:41:28.299Z,20.5
2018-04-28T05:51:27.823Z,18.7
2018-04-28T06:01:30.177Z,16.2
2018-04-28T06:11:27.886Z,22.6
2018-04-28T06:21:26.877Z,18.1
2018-04-28T06:31:26.561Z,20.4
2018-04-28T06:41:27.555Z,10.5
2018-04-28T06:51:27.595Z,12.9
2018-04-28T07:01:27.373Z,10.0
2018-04-28T07:11:27.194Z,11.2
2018-04-28T07:21:29.337Z,15.6
2018-04-28T07:31:26.989Z,13.3
2018-04-28T07:41:27.257Z,8.6
2018-04-28T07:51:27.642Z,18.3
2018-04-28T08:01:29.173Z,13.8
2018-04-28T08:11:26.764Z,8.6
2018-04-28T08:21:28.713Z,6.9
2018-04-28T08:31:28.383Z,12.8
2018-04-28T08:41:27.431Z,11.4
2018-04-28T08:51:26.758Z,6.1
2018-04-28T09:01:26.110Z,5.0
2018-04-28T09:11:27.123Z,5.5
2018-04-28T09:21:26.096Z,9.0
2018-04-28T09:31:26.827Z,5.1
2018-04-28T09:41:25.632Z,5.9
2018-04-28T09:51:28.143Z,14.5
2018-04-28T10:01:26.859Z,5.8
2018-04-28T10:11:26.000Z,4.3
2018-04-28T10:21:25.928Z,4.1
2018-04-28T10:31:25.733Z,4.7
2018-04-28T10:41:26.136Z,8.0
2018-04-28T10:51:26.971Z,5.1
2018-04-28T11:01:25.783Z,7.2
2018-04-28T11:11:26.470Z,4.7
2018-04-28T11:21:26.863Z,6.0
2018-04-28T11:31:26.430Z,5.1
2018-04-28T11:41:26.297Z,6.1
2018-04-28T11:51:26.149Z,8.0
2018-04-28T12:01:25.974Z,7.7
2018-04-28T12:11:27.492Z,6.7
2018-04-28T12:21:25.781Z,6.3
2018-04-28T12:31:25.882Z,3.2
2018-04-28T12:41:26.567Z,2.7
2018-04-28T12:51:26.404Z,5.5
2018-04-28T13:01:27.109Z,3.4
2018-04-28T13:11:26.305Z,8.8
2018-04-28T13:21:27.171Z,3.9
2018-04-28T13:31:28.337Z,5.0
2018-04-28T13:41:26.187Z,3.0
2018-04-28T13:51:31.807Z,3.7
2018-04-28T14:01:25.679Z,2.9
2018-04-28T14:11:33.187Z,2.7
2018-04-28T14:21:31.815Z,4.9
2018-04-28T14:31:31.311Z,5.2
2018-04-28T14:41:30.511Z,4.0
2018-04-28T14:51:37.821Z,5.0
2018-04-28T15:01:31.218Z,4.3
2018-04-28T15:11:31.770Z,3.8
2018-04-28T15:21:33.366Z,4.5
2018-04-28T15:31:27.868Z,8.7
2018-04-28T15:41:27.088Z,6.2
2018-04-28T15:51:28.991Z,4.7
2018-04-28T16:01:32.579Z,4.1
2018-04-28T16:11:31.908Z,5.9
2018-04-28T16:21:31.907Z,7.0
2018-04-28T16:31:31.274Z,4.0
2018-04-28T16:41:33.078Z,7.9
2018-04-28T16:51:26.860Z,6.2
2018-04-28T17:01:31.666Z,7.3
2018-04-28T17:11:26.869Z,5.5
2018-04-28T17:21:26.125Z,7.8
2018-04-28T17:31:28.305Z,8.7
2018-04-28T17:41:26.647Z,7.5
2018-04-28T17:51:27.026Z,8.3
2018-04-28T18:01:26.137Z,13.8
2018-04-28T18:11:25.885Z,9.9
2018-04-28T18:21:29.275Z,16.5
2018-04-28T18:31:26.325Z,13.2
2018-04-28T18:41:26.743Z,15.2
2018-04-28T18:51:27.076Z,13.6
2018-04-28T19:01:31.736Z,19.3
2018-04-28T19:11:26.440Z,13.3
2018-04-28T19:21:32.003Z,16.1
2018-04-28T19:31:26.078Z,21.4
2018-04-28T19:41:25.893Z,18.4
2018-04-28T19:51:26.528Z,19.5
2018-04-28T20:01:26.388Z,23.2
2018-04-28T20:11:28.291Z,22.9
2018-04-28T20:21:32.769Z,19.3
2018-04-28T20:31:33.409Z,23.0
2018-04-28T20:41:27.269Z,20.7
2018-04-28T20:51:31.952Z,14.1
2018-04-28T21:01:27.184Z,17.3
2018-04-28T21:11:27.571Z,17.4
2018-04-28T21:21:27.292Z,14.4
2018-04-28T21:31:27.551Z,17.0
2018-04-28T21:41:29.528Z,16.6
2018-04-28T21:51:31.810Z,22.7
2018-04-28T22:01:25.498Z,17.0
2018-04-28T22:11:28.458Z,21.1
2018-04-28T22:21:25.457Z,22.6
2018-04-28T22:31:26.490Z,19.7
2018-04-28T22:41:27.728Z,22.1
2018-04-28T22:51:26.421Z,27.5
2018-04-28T23:01:28.278Z,30.8
2018-04-28T23:11:28.641Z,33.2
2018-04-28T23:21:26.433Z,28.2
2018-04-28T23:31:26.726Z,26.4
2018-04-28T23:41:26.767Z,25.8
2018-04-28T23:51:26.744Z,29.8
